sensor_id;sensor_type;location;lat;lon;timestamp;P1;durP1;ratioP1;P2;durP2;ratioP2
21591;SDS011;10958;50.892;3.992;2022-11-20T00:02:15;72.15;;;31.80;;
21591;SDS011;10958;50.892;3.992;2022-11-20T00:04:41;72.35;;;31.50;;
21591;SDS011;10958;50.892;3.992;2022-11-20T00:07:09;70.30;;;32.22;;
21591;SDS011;10958;50.892;3.992;2022-11-20T00:09:35;73.97;;;32.05;;
21591;SDS011;10958;50.892;3.992;2022-11-20T00:12:03;70.63;;;32.78;;
21591;SDS011;10958;50.892;3.992;2022-11-20T00:14:30;61.70;;;29.20;;
21591;SDS011;10958;50.892;3.992;2022-11-20T00:16:55;72.05;;;29.20;;
21591;SDS011;10958;50.892;3.992;2022-11-20T00:19:21;64.82;;;29.45;;
21591;SDS011;10958;50.892;3.992;2022-11-20T00:21:47;65.30;;;29.40;;
21591;SDS011;10958;50.892;3.992;2022-11-20T00:26:41;62.88;;;28.00;;
21591;SDS011;10958;50.892;3.992;2022-11-20T00:29:08;69.25;;;29.83;;
21591;SDS011;10958;50.892;3.992;2022-11-20T00:31:35;64.90;;;29.13;;
21591;SDS011;10958;50.892;3.992;2022-11-20T00:34:01;67.93;;;29.88;;
21591;SDS011;10958;50.892;3.992;2022-11-20T00:36:27;71.22;;;31.25;;
21591;SDS011;10958;50.892;3.992;2022-11-20T00:38:54;75.13;;;30.23;;
21591;SDS011;10958;50.892;3.992;2022-11-20T00:41:22;68.05;;;30.30;;
21591;SDS011;10958;50.892;3.992;2022-11-20T00:43:48;64.78;;;28.23;;
21591;SDS011;10958;50.892;3.992;2022-11-20T00:46:17;64.10;;;28.35;;
21591;SDS011;10958;50.892;3.992;2022-11-20T00:48:44;64.45;;;28.30;;
21591;SDS011;10958;50.892;3.992;2022-11-20T00:51:11;68.03;;;29.08;;
21591;SDS011;10958;50.892;3.992;2022-11-20T00:53:42;66.22;;;30.10;;
21591;SDS011;10958;50.892;3.992;2022-11-20T00:56:12;62.45;;;29.23;;
21591;SDS011;10958;50.892;3.992;2022-11-20T00:58:41;64.20;;;29.17;;
21591;SDS011;10958;50.892;3.992;2022-11-20T01:01:27;75.00;;;30.73;;
21591;SDS011;10958;50.892;3.992;2022-11-20T01:03:55;66.65;;;29.92;;
21591;SDS011;10958;50.892;3.992;2022-11-20T01:06:24;73.93;;;30.20;;
21591;SDS011;10958;50.892;3.992;2022-11-20T01:08:58;66.28;;;28.65;;
21591;SDS011;10958;50.892;3.992;2022-11-20T01:11:29;67.63;;;29.40;;
21591;SDS011;10958;50.892;3.992;2022-11-20T01:14:00;69.97;;;30.98;;
21591;SDS011;10958;50.892;3.992;2022-11-20T01:19:39;60.47;;;26.75;;
21591;SDS011;10958;50.892;3.992;2022-11-20T01:22:06;67.35;;;28.80;;
21591;SDS011;10958;50.892;3.992;2022-11-20T01:24:32;70.57;;;30.02;;
21591;SDS011;10958;50.892;3.992;2022-11-20T01:26:58;66.40;;;28.70;;
21591;SDS011;10958;50.892;3.992;2022-11-20T01:29:24;67.07;;;29.05;;
21591;SDS011;10958;50.892;3.992;2022-11-20T01:31:51;66.03;;;29.60;;
21591;SDS011;10958;50.892;3.992;2022-11-20T01:34:18;60.35;;;27.95;;
21591;SDS011;10958;50.892;3.992;2022-11-20T01:36:52;65.85;;;28.70;;
21591;SDS011;10958;50.892;3.992;2022-11-20T01:39:22;75.30;;;29.70;;
21591;SDS011;10958;50.892;3.992;2022-11-20T01:41:51;58.55;;;27.23;;
21591;SDS011;10958;50.892;3.992;2022-11-20T01:44:56;59.83;;;25.98;;
21591;SDS011;10958;50.892;3.992;2022-11-20T01:52:51;54.45;;;24.92;;
21591;SDS011;10958;50.892;3.992;2022-11-20T01:55:34;55.83;;;28.17;;
21591;SDS011;10958;50.892;3.992;2022-11-20T01:58:05;63.22;;;28.42;;
21591;SDS011;10958;50.892;3.992;2022-11-20T02:00:34;56.08;;;26.73;;
21591;SDS011;10958;50.892;3.992;2022-11-20T02:03:01;53.25;;;27.30;;
21591;SDS011;10958;50.892;3.992;2022-11-20T02:05:39;60.10;;;26.30;;
21591;SDS011;10958;50.892;3.992;2022-11-20T02:08:12;61.47;;;24.90;;
21591;SDS011;10958;50.892;3.992;2022-11-20T02:10:38;54.10;;;25.70;;
21591;SDS011;10958;50.892;3.992;2022-11-20T02:13:04;57.28;;;26.50;;
21591;SDS011;10958;50.892;3.992;2022-11-20T02:15:49;60.05;;;27.95;;
21591;SDS011;10958;50.892;3.992;2022-11-20T02:18:16;55.95;;;26.88;;
21591;SDS011;10958;50.892;3.992;2022-11-20T02:20:45;54.13;;;25.95;;
21591;SDS011;10958;50.892;3.992;2022-11-20T02:23:21;60.67;;;26.33;;
21591;SDS011;10958;50.892;3.992;2022-11-20T02:26:03;58.25;;;26.77;;
21591;SDS011;10958;50.892;3.992;2022-11-20T02:28:32;54.53;;;24.98;;
21591;SDS011;10958;50.892;3.992;2022-11-20T02:31:07;60.22;;;24.55;;
21591;SDS011;10958;50.892;3.992;2022-11-20T02:33:42;52.97;;;25.58;;
21591;SDS011;10958;50.892;3.992;2022-11-20T02:36:11;52.38;;;26.02;;
21591;SDS011;10958;50.892;3.992;2022-11-20T02:38:41;50.95;;;24.98;;
21591;SDS011;10958;50.892;3.992;2022-11-20T02:41:08;58.22;;;25.70;;
21591;SDS011;10958;50.892;3.992;2022-11-20T02:43:33;52.55;;;24.17;;
21591;SDS011;10958;50.892;3.992;2022-11-20T02:45:59;53.80;;;24.77;;
21591;SDS011;10958;50.892;3.992;2022-11-20T02:48:25;55.17;;;25.25;;
21591;SDS011;10958;50.892;3.992;2022-11-20T02:50:51;55.30;;;25.40;;
21591;SDS011;10958;50.892;3.992;2022-11-20T02:53:16;56.30;;;25.85;;
21591;SDS011;10958;50.892;3.992;2022-11-20T02:55:42;52.80;;;25.15;;
21591;SDS011;10958;50.892;3.992;2022-11-20T02:58:08;47.72;;;25.30;;
21591;SDS011;10958;50.892;3.992;2022-11-20T03:00:37;53.97;;;26.50;;
21591;SDS011;10958;50.892;3.992;2022-11-20T03:03:02;55.35;;;26.58;;
21591;SDS011;10958;50.892;3.992;2022-11-20T03:05:28;55.60;;;26.20;;
21591;SDS011;10958;50.892;3.992;2022-11-20T03:07:54;53.42;;;25.83;;
21591;SDS011;10958;50.892;3.992;2022-11-20T03:10:20;51.15;;;25.02;;
21591;SDS011;10958;50.892;3.992;2022-11-20T03:12:46;52.60;;;25.45;;
21591;SDS011;10958;50.892;3.992;2022-11-20T03:15:12;60.63;;;26.95;;
21591;SDS011;10958;50.892;3.992;2022-11-20T03:17:37;58.38;;;26.67;;
21591;SDS011;10958;50.892;3.992;2022-11-20T03:20:04;54.65;;;24.92;;
21591;SDS011;10958;50.892;3.992;2022-11-20T03:22:33;54.08;;;25.00;;
21591;SDS011;10958;50.892;3.992;2022-11-20T03:25:09;57.70;;;26.23;;
21591;SDS011;10958;50.892;3.992;2022-11-20T03:27:34;67.43;;;26.40;;
21591;SDS011;10958;50.892;3.992;2022-11-20T03:30:00;62.20;;;26.90;;
21591;SDS011;10958;50.892;3.992;2022-11-20T03:32:31;59.37;;;27.77;;
21591;SDS011;10958;50.892;3.992;2022-11-20T03:34:57;62.75;;;26.60;;
21591;SDS011;10958;50.892;3.992;2022-11-20T03:37:23;61.38;;;25.38;;
21591;SDS011;10958;50.892;3.992;2022-11-20T03:39:51;56.30;;;27.25;;
21591;SDS011;10958;50.892;3.992;2022-11-20T03:42:17;67.97;;;27.25;;
21591;SDS011;10958;50.892;3.992;2022-11-20T03:45:01;62.00;;;27.98;;
21591;SDS011;10958;50.892;3.992;2022-11-20T03:47:47;68.30;;;26.77;;
21591;SDS011;10958;50.892;3.992;2022-11-20T03:50:13;59.55;;;26.63;;
21591;SDS011;10958;50.892;3.992;2022-11-20T03:52:39;67.72;;;27.85;;
21591;SDS011;10958;50.892;3.992;2022-11-20T03:55:06;67.07;;;27.52;;
21591;SDS011;10958;50.892;3.992;2022-11-20T03:57:32;67.13;;;27.77;;
21591;SDS011;10958;50.892;3.992;2022-11-20T04:00:00;73.72;;;27.92;;
21591;SDS011;10958;50.892;3.992;2022-11-20T04:02:30;69.78;;;27.02;;
21591;SDS011;10958;50.892;3.992;2022-11-20T04:04:56;67.68;;;28.90;;
21591;SDS011;10958;50.892;3.992;2022-11-20T04:07:22;69.68;;;29.02;;
21591;SDS011;10958;50.892;3.992;2022-11-20T04:09:50;75.63;;;28.60;;
21591;SDS011;10958;50.892;3.992;2022-11-20T04:12:16;68.70;;;28.50;;
21591;SDS011;10958;50.892;3.992;2022-11-20T04:14:44;75.65;;;29.55;;
21591;SDS011;10958;50.892;3.992;2022-11-20T04:17:11;73.22;;;29.70;;
21591;SDS011;10958;50.892;3.992;2022-11-20T04:19:36;73.10;;;27.73;;
21591;SDS011;10958;50.892;3.992;2022-11-20T04:22:02;68.45;;;27.98;;
21591;SDS011;10958;50.892;3.992;2022-11-20T04:24:30;67.55;;;28.10;;
21591;SDS011;10958;50.892;3.992;2022-11-20T04:26:56;70.73;;;28.60;;
21591;SDS011;10958;50.892;3.992;2022-11-20T04:29:22;76.13;;;28.75;;
21591;SDS011;10958;50.892;3.992;2022-11-20T04:32:28;69.75;;;27.35;;
21591;SDS011;10958;50.892;3.992;2022-11-20T04:35:06;67.25;;;27.60;;
21591;SDS011;10958;50.892;3.992;2022-11-20T04:37:34;71.85;;;28.50;;
21591;SDS011;10958;50.892;3.992;2022-11-20T04:40:11;70.03;;;27.02;;
21591;SDS011;10958;50.892;3.992;2022-11-20T04:42:37;72.20;;;27.55;;
21591;SDS011;10958;50.892;3.992;2022-11-20T04:45:04;68.90;;;27.13;;
21591;SDS011;10958;50.892;3.992;2022-11-20T04:47:30;69.80;;;27.95;;
21591;SDS011;10958;50.892;3.992;2022-11-20T04:49:55;81.15;;;30.77;;
21591;SDS011;10958;50.892;3.992;2022-11-20T04:52:21;73.43;;;28.73;;
21591;SDS011;10958;50.892;3.992;2022-11-20T04:54:47;72.53;;;27.92;;
21591;SDS011;10958;50.892;3.992;2022-11-20T04:57:13;77.28;;;29.48;;
21591;SDS011;10958;50.892;3.992;2022-11-20T04:59:40;72.88;;;28.30;;
21591;SDS011;10958;50.892;3.992;2022-11-20T05:02:05;85.45;;;30.85;;
21591;SDS011;10958;50.892;3.992;2022-11-20T05:04:49;73.00;;;29.13;;
21591;SDS011;10958;50.892;3.992;2022-11-20T05:07:15;77.90;;;28.77;;
21591;SDS011;10958;50.892;3.992;2022-11-20T05:09:41;79.00;;;29.17;;
21591;SDS011;10958;50.892;3.992;2022-11-20T05:12:46;83.63;;;28.83;;
21591;SDS011;10958;50.892;3.992;2022-11-20T05:15:32;82.37;;;28.70;;
21591;SDS011;10958;50.892;3.992;2022-11-20T05:18:01;86.25;;;30.83;;
21591;SDS011;10958;50.892;3.992;2022-11-20T05:20:26;82.90;;;30.30;;
21591;SDS011;10958;50.892;3.992;2022-11-20T05:22:52;89.80;;;30.33;;
21591;SDS011;10958;50.892;3.992;2022-11-20T05:25:22;86.80;;;29.70;;
21591;SDS011;10958;50.892;3.992;2022-11-20T05:27:47;87.40;;;29.40;;
21591;SDS011;10958;50.892;3.992;2022-11-20T05:30:14;87.65;;;30.75;;
21591;SDS011;10958;50.892;3.992;2022-11-20T05:32:40;83.85;;;30.35;;
21591;SDS011;10958;50.892;3.992;2022-11-20T05:35:06;76.93;;;28.88;;
21591;SDS011;10958;50.892;3.992;2022-11-20T05:37:32;80.90;;;29.30;;
21591;SDS011;10958;50.892;3.992;2022-11-20T05:39:58;92.05;;;29.10;;
21591;SDS011;10958;50.892;3.992;2022-11-20T05:42:24;85.75;;;28.23;;
21591;SDS011;10958;50.892;3.992;2022-11-20T05:44:56;87.53;;;28.63;;
21591;SDS011;10958;50.892;3.992;2022-11-20T05:47:26;93.18;;;29.17;;
21591;SDS011;10958;50.892;3.992;2022-11-20T05:49:56;79.15;;;29.73;;
21591;SDS011;10958;50.892;3.992;2022-11-20T05:52:21;87.30;;;29.67;;
21591;SDS011;10958;50.892;3.992;2022-11-20T05:54:48;80.72;;;28.08;;
21591;SDS011;10958;50.892;3.992;2022-11-20T05:57:13;81.03;;;29.13;;
21591;SDS011;10958;50.892;3.992;2022-11-20T05:59:39;81.50;;;28.10;;
21591;SDS011;10958;50.892;3.992;2022-11-20T06:02:08;84.77;;;27.93;;
21591;SDS011;10958;50.892;3.992;2022-11-20T06:04:33;81.45;;;27.95;;
21591;SDS011;10958;50.892;3.992;2022-11-20T06:06:59;89.57;;;30.40;;
21591;SDS011;10958;50.892;3.992;2022-11-20T06:09:25;93.72;;;30.05;;
21591;SDS011;10958;50.892;3.992;2022-11-20T06:11:51;95.75;;;29.25;;
21591;SDS011;10958;50.892;3.992;2022-11-20T06:14:16;92.13;;;29.63;;
21591;SDS011;10958;50.892;3.992;2022-11-20T06:16:42;86.20;;;30.30;;
21591;SDS011;10958;50.892;3.992;2022-11-20T06:19:08;91.88;;;31.38;;
21591;SDS011;10958;50.892;3.992;2022-11-20T06:21:34;85.90;;;29.15;;
21591;SDS011;10958;50.892;3.992;2022-11-20T06:24:00;82.85;;;29.15;;
21591;SDS011;10958;50.892;3.992;2022-11-20T06:26:26;83.55;;;27.63;;
21591;SDS011;10958;50.892;3.992;2022-11-20T06:28:55;86.88;;;29.40;;
21591;SDS011;10958;50.892;3.992;2022-11-20T06:31:22;86.00;;;28.50;;
21591;SDS011;10958;50.892;3.992;2022-11-20T06:33:50;86.28;;;28.45;;
21591;SDS011;10958;50.892;3.992;2022-11-20T06:36:17;83.53;;;29.58;;
21591;SDS011;10958;50.892;3.992;2022-11-20T06:38:48;78.72;;;28.67;;
21591;SDS011;10958;50.892;3.992;2022-11-20T06:41:21;83.22;;;28.38;;
21591;SDS011;10958;50.892;3.992;2022-11-20T06:43:47;76.25;;;29.05;;
21591;SDS011;10958;50.892;3.992;2022-11-20T06:46:14;80.40;;;28.73;;
21591;SDS011;10958;50.892;3.992;2022-11-20T06:48:44;81.15;;;28.85;;
21591;SDS011;10958;50.892;3.992;2022-11-20T06:51:10;84.88;;;28.08;;
21591;SDS011;10958;50.892;3.992;2022-11-20T06:53:36;73.30;;;27.08;;
21591;SDS011;10958;50.892;3.992;2022-11-20T06:56:05;71.93;;;28.27;;
21591;SDS011;10958;50.892;3.992;2022-11-20T06:58:32;70.95;;;27.85;;
21591;SDS011;10958;50.892;3.992;2022-11-20T07:00:59;71.20;;;26.98;;
21591;SDS011;10958;50.892;3.992;2022-11-20T07:03:29;69.30;;;27.33;;
21591;SDS011;10958;50.892;3.992;2022-11-20T07:05:55;68.45;;;27.42;;
21591;SDS011;10958;50.892;3.992;2022-11-20T07:08:22;71.30;;;27.25;;
21591;SDS011;10958;50.892;3.992;2022-11-20T07:10:50;70.70;;;27.63;;
21591;SDS011;10958;50.892;3.992;2022-11-20T07:13:18;73.80;;;27.90;;
21591;SDS011;10958;50.892;3.992;2022-11-20T07:15:44;69.13;;;25.83;;
21591;SDS011;10958;50.892;3.992;2022-11-20T07:18:10;71.63;;;27.13;;
21591;SDS011;10958;50.892;3.992;2022-11-20T07:20:46;66.38;;;25.70;;
21591;SDS011;10958;50.892;3.992;2022-11-20T07:23:15;67.07;;;26.63;;
21591;SDS011;10958;50.892;3.992;2022-11-20T07:25:41;67.15;;;25.65;;
21591;SDS011;10958;50.892;3.992;2022-11-20T07:28:07;68.15;;;26.25;;
21591;SDS011;10958;50.892;3.992;2022-11-20T07:30:33;62.78;;;25.33;;
21591;SDS011;10958;50.892;3.992;2022-11-20T07:33:01;67.72;;;27.48;;
21591;SDS011;10958;50.892;3.992;2022-11-20T07:35:26;61.95;;;25.10;;
21591;SDS011;10958;50.892;3.992;2022-11-20T07:37:55;58.80;;;24.53;;
21591;SDS011;10958;50.892;3.992;2022-11-20T07:40:21;61.83;;;22.80;;
21591;SDS011;10958;50.892;3.992;2022-11-20T07:42:49;66.82;;;24.98;;
21591;SDS011;10958;50.892;3.992;2022-11-20T07:45:17;61.85;;;23.73;;
21591;SDS011;10958;50.892;3.992;2022-11-20T07:47:43;56.30;;;23.65;;
21591;SDS011;10958;50.892;3.992;2022-11-20T07:50:11;78.90;;;28.63;;
21591;SDS011;10958;50.892;3.992;2022-11-20T07:55:04;67.15;;;24.58;;
21591;SDS011;10958;50.892;3.992;2022-11-20T07:57:30;63.70;;;23.33;;
21591;SDS011;10958;50.892;3.992;2022-11-20T07:59:57;57.92;;;22.67;;
21591;SDS011;10958;50.892;3.992;2022-11-20T08:02:25;57.22;;;23.55;;
21591;SDS011;10958;50.892;3.992;2022-11-20T08:04:51;60.78;;;23.52;;
21591;SDS011;10958;50.892;3.992;2022-11-20T08:07:17;68.18;;;24.08;;
21591;SDS011;10958;50.892;3.992;2022-11-20T08:09:45;58.65;;;22.00;;
21591;SDS011;10958;50.892;3.992;2022-11-20T08:12:17;66.20;;;23.75;;
21591;SDS011;10958;50.892;3.992;2022-11-20T08:15:04;49.53;;;21.42;;
21591;SDS011;10958;50.892;3.992;2022-11-20T08:17:30;62.35;;;22.98;;
21591;SDS011;10958;50.892;3.992;2022-11-20T08:19:58;61.20;;;21.58;;
21591;SDS011;10958;50.892;3.992;2022-11-20T08:22:29;60.92;;;21.88;;
21591;SDS011;10958;50.892;3.992;2022-11-20T08:25:05;67.95;;;23.77;;
21591;SDS011;10958;50.892;3.992;2022-11-20T08:27:31;55.42;;;20.88;;
21591;SDS011;10958;50.892;3.992;2022-11-20T08:30:28;54.03;;;21.30;;
21591;SDS011;10958;50.892;3.992;2022-11-20T08:33:01;53.25;;;21.33;;
21591;SDS011;10958;50.892;3.992;2022-11-20T08:35:32;62.50;;;22.87;;
21591;SDS011;10958;50.892;3.992;2022-11-20T08:37:59;58.17;;;21.75;;
21591;SDS011;10958;50.892;3.992;2022-11-20T08:40:26;59.53;;;22.98;;
21591;SDS011;10958;50.892;3.992;2022-11-20T08:42:52;56.88;;;21.85;;
21591;SDS011;10958;50.892;3.992;2022-11-20T08:45:18;53.60;;;21.63;;
21591;SDS011;10958;50.892;3.992;2022-11-20T08:47:45;59.05;;;20.48;;
21591;SDS011;10958;50.892;3.992;2022-11-20T08:50:12;53.00;;;20.80;;
21591;SDS011;10958;50.892;3.992;2022-11-20T08:52:39;55.38;;;21.55;;
21591;SDS011;10958;50.892;3.992;2022-11-20T08:55:05;59.72;;;20.50;;
21591;SDS011;10958;50.892;3.992;2022-11-20T08:57:36;53.63;;;21.70;;
21591;SDS011;10958;50.892;3.992;2022-11-20T09:00:06;54.05;;;21.05;;
21591;SDS011;10958;50.892;3.992;2022-11-20T09:02:33;51.25;;;21.00;;
21591;SDS011;10958;50.892;3.992;2022-11-20T09:04:59;56.90;;;21.77;;
21591;SDS011;10958;50.892;3.992;2022-11-20T09:07:27;53.88;;;20.85;;
21591;SDS011;10958;50.892;3.992;2022-11-20T09:09:53;52.35;;;21.50;;
21591;SDS011;10958;50.892;3.992;2022-11-20T09:12:20;55.22;;;21.38;;
21591;SDS011;10958;50.892;3.992;2022-11-20T09:14:46;49.45;;;20.52;;
21591;SDS011;10958;50.892;3.992;2022-11-20T09:17:12;47.78;;;19.58;;
21591;SDS011;10958;50.892;3.992;2022-11-20T09:19:39;50.38;;;19.90;;
21591;SDS011;10958;50.892;3.992;2022-11-20T09:22:05;43.92;;;19.65;;
21591;SDS011;10958;50.892;3.992;2022-11-20T09:24:32;47.33;;;19.83;;
21591;SDS011;10958;50.892;3.992;2022-11-20T09:27:03;48.63;;;19.75;;
21591;SDS011;10958;50.892;3.992;2022-11-20T09:29:35;40.40;;;17.58;;
21591;SDS011;10958;50.892;3.992;2022-11-20T09:32:02;47.15;;;18.48;;
21591;SDS011;10958;50.892;3.992;2022-11-20T09:34:27;38.08;;;18.02;;
21591;SDS011;10958;50.892;3.992;2022-11-20T09:36:53;36.78;;;17.98;;
21591;SDS011;10958;50.892;3.992;2022-11-20T09:39:19;37.33;;;17.08;;
21591;SDS011;10958;50.892;3.992;2022-11-20T09:41:55;33.10;;;16.27;;
21591;SDS011;10958;50.892;3.992;2022-11-20T09:50:23;35.67;;;16.13;;
21591;SDS011;10958;50.892;3.992;2022-11-20T09:55:29;32.60;;;14.60;;
21591;SDS011;10958;50.892;3.992;2022-11-20T09:57:56;27.58;;;14.63;;
21591;SDS011;10958;50.892;3.992;2022-11-20T10:00:24;27.98;;;13.65;;
21591;SDS011;10958;50.892;3.992;2022-11-20T10:05:44;25.05;;;13.07;;
21591;SDS011;10958;50.892;3.992;2022-11-20T10:17:27;22.58;;;10.05;;
21591;SDS011;10958;50.892;3.992;2022-11-20T10:23:33;18.38;;;8.73;;
21591;SDS011;10958;50.892;3.992;2022-11-20T10:26:21;18.23;;;8.35;;
21591;SDS011;10958;50.892;3.992;2022-11-20T10:31:39;15.32;;;6.72;;
21591;SDS011;10958;50.892;3.992;2022-11-20T10:34:18;15.13;;;6.40;;
21591;SDS011;10958;50.892;3.992;2022-11-20T10:37:14;12.73;;;5.72;;
21591;SDS011;10958;50.892;3.992;2022-11-20T10:50:40;7.90;;;4.53;;
21591;SDS011;10958;50.892;3.992;2022-11-20T10:55:54;7.40;;;4.35;;
21591;SDS011;10958;50.892;3.992;2022-11-20T10:58:29;15.10;;;4.15;;
21591;SDS011;10958;50.892;3.992;2022-11-20T11:14:13;8.48;;;3.83;;
21591;SDS011;10958;50.892;3.992;2022-11-20T11:16:56;9.32;;;3.17;;
21591;SDS011;10958;50.892;3.992;2022-11-20T11:19:24;4.75;;;2.97;;
21591;SDS011;10958;50.892;3.992;2022-11-20T11:21:54;7.95;;;3.05;;
21591;SDS011;10958;50.892;3.992;2022-11-20T11:24:30;5.78;;;2.88;;
21591;SDS011;10958;50.892;3.992;2022-11-20T11:27:00;10.18;;;3.25;;
21591;SDS011;10958;50.892;3.992;2022-11-20T11:29:29;6.57;;;2.40;;
21591;SDS011;10958;50.892;3.992;2022-11-20T11:32:11;7.93;;;2.70;;
21591;SDS011;10958;50.892;3.992;2022-11-20T11:34:38;9.15;;;2.80;;
21591;SDS011;10958;50.892;3.992;2022-11-20T11:37:13;4.70;;;2.35;;
21591;SDS011;10958;50.892;3.992;2022-11-20T11:39:49;6.97;;;3.55;;
21591;SDS011;10958;50.892;3.992;2022-11-20T11:42:17;6.57;;;3.78;;
21591;SDS011;10958;50.892;3.992;2022-11-20T11:44:45;6.75;;;3.40;;
21591;SDS011;10958;50.892;3.992;2022-11-20T11:47:44;6.85;;;3.05;;
21591;SDS011;10958;50.892;3.992;2022-11-20T11:55:29;5.38;;;3.45;;
21591;SDS011;10958;50.892;3.992;2022-11-20T12:00:49;6.18;;;2.58;;
21591;SDS011;10958;50.892;3.992;2022-11-20T12:03:24;5.53;;;2.50;;
21591;SDS011;10958;50.892;3.992;2022-11-20T12:05:58;7.72;;;2.70;;
21591;SDS011;10958;50.892;3.992;2022-11-20T12:08:36;6.30;;;2.40;;
21591;SDS011;10958;50.892;3.992;2022-11-20T12:11:20;5.80;;;2.42;;
21591;SDS011;10958;50.892;3.992;2022-11-20T12:13:58;10.32;;;4.05;;
21591;SDS011;10958;50.892;3.992;2022-11-20T12:16:30;8.80;;;3.22;;
21591;SDS011;10958;50.892;3.992;2022-11-20T12:19:02;10.27;;;5.10;;
21591;SDS011;10958;50.892;3.992;2022-11-20T12:21:42;18.23;;;6.65;;
21591;SDS011;10958;50.892;3.992;2022-11-20T12:29:57;5.03;;;2.70;;
21591;SDS011;10958;50.892;3.992;2022-11-20T12:43:22;8.77;;;3.53;;
21591;SDS011;10958;50.892;3.992;2022-11-20T12:46:12;13.43;;;5.32;;
21591;SDS011;10958;50.892;3.992;2022-11-20T13:08:22;13.70;;;7.10;;
21591;SDS011;10958;50.892;3.992;2022-11-20T13:16:00;4.15;;;2.90;;
21591;SDS011;10958;50.892;3.992;2022-11-20T13:18:39;3.92;;;1.95;;
21591;SDS011;10958;50.892;3.992;2022-11-20T13:24:19;3.97;;;2.17;;
21591;SDS011;10958;50.892;3.992;2022-11-20T13:27:16;2.63;;;2.23;;
21591;SDS011;10958;50.892;3.992;2022-11-20T13:29:45;6.68;;;2.60;;
21591;SDS011;10958;50.892;3.992;2022-11-20T13:32:23;1.88;;;1.65;;
21591;SDS011;10958;50.892;3.992;2022-11-20T13:34:56;3.97;;;2.50;;
21591;SDS011;10958;50.892;3.992;2022-11-20T13:37:32;3.55;;;1.75;;
21591;SDS011;10958;50.892;3.992;2022-11-20T13:40:22;3.85;;;2.70;;
21591;SDS011;10958;50.892;3.992;2022-11-20T13:45:38;4.57;;;2.20;;
21591;SDS011;10958;50.892;3.992;2022-11-20T13:48:05;4.50;;;2.45;;
21591;SDS011;10958;50.892;3.992;2022-11-20T13:53:42;3.75;;;2.25;;
21591;SDS011;10958;50.892;3.992;2022-11-20T13:59:02;2.30;;;1.88;;
21591;SDS011;10958;50.892;3.992;2022-11-20T14:01:40;4.15;;;2.63;;
21591;SDS011;10958;50.892;3.992;2022-11-20T14:04:12;5.88;;;3.20;;
21591;SDS011;10958;50.892;3.992;2022-11-20T14:06:44;2.88;;;2.40;;
21591;SDS011;10958;50.892;3.992;2022-11-20T14:09:12;4.70;;;2.05;;
21591;SDS011;10958;50.892;3.992;2022-11-20T14:11:50;6.27;;;2.30;;
21591;SDS011;10958;50.892;3.992;2022-11-20T14:14:17;2.83;;;2.13;;
21591;SDS011;10958;50.892;3.992;2022-11-20T14:16:45;3.20;;;2.45;;
21591;SDS011;10958;50.892;3.992;2022-11-20T14:22:10;5.80;;;2.65;;
21591;SDS011;10958;50.892;3.992;2022-11-20T14:24:47;3.45;;;2.50;;
21591;SDS011;10958;50.892;3.992;2022-11-20T14:27:14;3.95;;;2.50;;
21591;SDS011;10958;50.892;3.992;2022-11-20T14:29:46;3.65;;;3.03;;
21591;SDS011;10958;50.892;3.992;2022-11-20T14:32:15;3.20;;;2.15;;
21591;SDS011;10958;50.892;3.992;2022-11-20T14:34:49;4.28;;;3.38;;
21591;SDS011;10958;50.892;3.992;2022-11-20T14:37:23;12.63;;;7.00;;
21591;SDS011;10958;50.892;3.992;2022-11-20T14:39:52;5.63;;;2.90;;
21591;SDS011;10958;50.892;3.992;2022-11-20T14:45:11;6.63;;;4.18;;
21591;SDS011;10958;50.892;3.992;2022-11-20T14:47:38;4.55;;;3.47;;
21591;SDS011;10958;50.892;3.992;2022-11-20T14:50:12;6.47;;;3.40;;
21591;SDS011;10958;50.892;3.992;2022-11-20T14:52:53;7.88;;;4.38;;
21591;SDS011;10958;50.892;3.992;2022-11-20T14:58:02;5.68;;;3.55;;
21591;SDS011;10958;50.892;3.992;2022-11-20T15:00:31;5.80;;;3.28;;
21591;SDS011;10958;50.892;3.992;2022-11-20T15:02:58;6.32;;;3.17;;
21591;SDS011;10958;50.892;3.992;2022-11-20T15:05:25;5.15;;;3.58;;
21591;SDS011;10958;50.892;3.992;2022-11-20T15:08:10;7.30;;;3.40;;
21591;SDS011;10958;50.892;3.992;2022-11-20T15:10:47;6.63;;;3.05;;
21591;SDS011;10958;50.892;3.992;2022-11-20T15:13:16;7.60;;;3.63;;
21591;SDS011;10958;50.892;3.992;2022-11-20T15:15:56;6.80;;;2.88;;
21591;SDS011;10958;50.892;3.992;2022-11-20T15:18:28;6.75;;;3.08;;
21591;SDS011;10958;50.892;3.992;2022-11-20T15:21:02;7.53;;;2.80;;
21591;SDS011;10958;50.892;3.992;2022-11-20T15:23:35;9.27;;;2.53;;
21591;SDS011;10958;50.892;3.992;2022-11-20T15:26:01;8.57;;;2.83;;
21591;SDS011;10958;50.892;3.992;2022-11-20T15:28:29;7.03;;;2.30;;
21591;SDS011;10958;50.892;3.992;2022-11-20T15:30:58;10.27;;;2.80;;
21591;SDS011;10958;50.892;3.992;2022-11-20T15:33:26;13.60;;;2.13;;
21591;SDS011;10958;50.892;3.992;2022-11-20T15:35:55;13.43;;;2.75;;
21591;SDS011;10958;50.892;3.992;2022-11-20T15:38:22;6.63;;;2.63;;
21591;SDS011;10958;50.892;3.992;2022-11-20T15:40:48;9.68;;;2.60;;
21591;SDS011;10958;50.892;3.992;2022-11-20T15:43:13;13.57;;;2.20;;
21591;SDS011;10958;50.892;3.992;2022-11-20T15:45:41;14.93;;;2.47;;
21591;SDS011;10958;50.892;3.992;2022-11-20T15:48:18;12.50;;;2.80;;
21591;SDS011;10958;50.892;3.992;2022-11-20T15:50:49;13.90;;;2.10;;
21591;SDS011;10958;50.892;3.992;2022-11-20T15:53:23;15.90;;;2.63;;
21591;SDS011;10958;50.892;3.992;2022-11-20T15:55:49;18.75;;;3.22;;
21591;SDS011;10958;50.892;3.992;2022-11-20T15:58:15;15.63;;;3.00;;
21591;SDS011;10958;50.892;3.992;2022-11-20T16:00:44;17.35;;;2.63;;
21591;SDS011;10958;50.892;3.992;2022-11-20T16:03:10;13.88;;;2.47;;
21591;SDS011;10958;50.892;3.992;2022-11-20T16:05:37;13.25;;;2.35;;
21591;SDS011;10958;50.892;3.992;2022-11-20T16:08:03;15.55;;;2.72;;
21591;SDS011;10958;50.892;3.992;2022-11-20T16:10:29;10.35;;;2.92;;
21591;SDS011;10958;50.892;3.992;2022-11-20T16:12:55;10.50;;;2.95;;
21591;SDS011;10958;50.892;3.992;2022-11-20T16:15:39;18.88;;;3.08;;
21591;SDS011;10958;50.892;3.992;2022-11-20T16:18:14;16.75;;;2.78;;
21591;SDS011;10958;50.892;3.992;2022-11-20T16:20:42;14.20;;;2.70;;
21591;SDS011;10958;50.892;3.992;2022-11-20T16:23:08;15.45;;;2.33;;
21591;SDS011;10958;50.892;3.992;2022-11-20T16:25:34;16.50;;;3.00;;
21591;SDS011;10958;50.892;3.992;2022-11-20T16:28:01;15.98;;;2.83;;
21591;SDS011;10958;50.892;3.992;2022-11-20T16:30:27;12.70;;;2.80;;
21591;SDS011;10958;50.892;3.992;2022-11-20T16:32:53;8.90;;;2.22;;
21591;SDS011;10958;50.892;3.992;2022-11-20T16:35:19;17.02;;;3.60;;
21591;SDS011;10958;50.892;3.992;2022-11-20T16:37:45;16.70;;;2.83;;
21591;SDS011;10958;50.892;3.992;2022-11-20T16:40:11;12.70;;;3.55;;
21591;SDS011;10958;50.892;3.992;2022-11-20T16:42:37;14.35;;;3.25;;
21591;SDS011;10958;50.892;3.992;2022-11-20T16:45:04;16.70;;;3.00;;
21591;SDS011;10958;50.892;3.992;2022-11-20T16:47:33;13.27;;;2.97;;
21591;SDS011;10958;50.892;3.992;2022-11-20T16:50:00;10.23;;;2.90;;
21591;SDS011;10958;50.892;3.992;2022-11-20T16:52:27;20.67;;;3.03;;
21591;SDS011;10958;50.892;3.992;2022-11-20T16:54:54;18.27;;;3.67;;
21591;SDS011;10958;50.892;3.992;2022-11-20T16:57:22;15.70;;;3.40;;
21591;SDS011;10958;50.892;3.992;2022-11-20T16:59:49;13.18;;;2.83;;
21591;SDS011;10958;50.892;3.992;2022-11-20T17:02:16;19.98;;;3.45;;